Time;durP1;ratioP1;P1;durP2;ratioP2;P2;SDS_P1;SDS_P2;PMS_P1;PMS_P2;Temp;Humidity;BMP_temperature;BMP_pressure;BME280_temperature;BME280_humidity;BME280_pressure;Samples;Min_cycle;Max_cycle;Signal;HPM_P1;HPM_P2
2022/04/16 00:01:03;;;;;;;29.20;18.38;;;;;;;7.76;80.27;102995.53;5021448;28;20048;-59
2022/04/16 00:03:29;;;;;;;33.70;24.85;;;;;;;7.51;81.39;102985.41;5041156;28;20335;-59
2022/04/16 00:05:56;;;;;;;36.97;24.63;;;;;;;7.55;81.07;102992.25;5038528;28;20040;-59
2022/04/16 00:08:23;;;;;;;34.75;26.05;;;;;;;7.27;82.89;102991.50;5041836;28;20025;-60
2022/04/16 00:10:48;;;;;;;26.75;18.98;;;;;;;7.52;81.41;102989.84;5040161;28;20426;-60
2022/04/16 00:13:16;;;;;;;34.88;24.23;;;;;;;7.47;81.53;102989.47;5041533;28;20025;-59
2022/04/16 00:15:43;;;;;;;36.97;26.60;;;;;;;7.59;80.62;102985.44;5052424;28;20104;-60
2022/04/16 00:18:08;;;;;;;36.33;25.75;;;;;;;7.42;81.75;102986.34;5042898;28;20029;-59
2022/04/16 00:20:35;;;;;;;31.30;23.20;;;;;;;7.45;81.49;102986.00;5040801;28;20158;-59
2022/04/16 00:23:00;;;;;;;37.53;22.02;;;;;;;7.52;80.81;102990.72;5040986;28;20128;-59
2022/04/16 00:25:25;;;;;;;27.10;16.67;;;;;;;7.54;80.80;102983.19;5042021;28;20109;-59
2022/04/16 00:27:52;;;;;;;30.90;18.67;;;;;;;7.56;80.49;102996.72;5042072;28;20064;-60
2022/04/16 00:30:18;;;;;;;33.35;19.80;;;;;;;7.42;81.29;102989.09;5040612;28;20082;-59
2022/04/16 00:32:44;;;;;;;35.00;23.45;;;;;;;7.20;82.49;102988.56;5040624;28;20033;-59
2022/04/16 00:35:10;;;;;;;33.45;21.75;;;;;;;7.30;81.56;102988.47;5040552;28;20036;-59
2022/04/16 00:37:35;;;;;;;31.38;17.50;;;;;;;7.48;80.69;102993.91;5042379;28;20025;-59
2022/04/16 00:40:01;;;;;;;35.75;24.05;;;;;;;7.25;82.02;102996.28;5043648;28;20402;-59
2022/04/16 00:42:32;;;;;;;25.70;15.52;;;;;;;7.42;81.87;102997.28;5044378;28;20445;-59
2022/04/16 00:44:57;;;;;;;41.90;23.63;;;;;;;7.22;81.87;102991.97;5045490;28;20033;-59
2022/04/16 00:47:23;;;;;;;39.05;26.88;;;;;;;6.98;83.40;102991.72;5044862;28;20319;-59
2022/04/16 00:49:48;;;;;;;38.38;27.48;;;;;;;7.11;82.95;102994.94;5043949;28;20162;-59
2022/04/16 00:52:14;;;;;;;38.55;26.55;;;;;;;7.32;81.76;102993.78;5043697;28;20037;-59
2022/04/16 00:54:40;;;;;;;40.00;25.83;;;;;;;7.28;81.71;102995.94;5045442;28;20436;-60
2022/04/16 00:57:05;;;;;;;39.50;26.83;;;;;;;7.14;82.51;102989.16;5045319;28;20025;-59
2022/04/16 00:59:30;;;;;;;41.17;29.02;;;;;;;7.01;83.10;103005.09;5042354;28;20499;-59
2022/04/16 01:01:58;;;;;;;35.85;23.10;;;;;;;7.18;82.84;102990.56;5045274;28;20029;-59
2022/04/16 01:04:24;;;;;;;40.28;24.88;;;;;;;7.14;82.64;102988.28;5044157;28;20101;-59
2022/04/16 01:06:49;;;;;;;44.28;29.63;;;;;;;7.05;83.15;102989.25;5043628;28;21004;-60
2022/04/16 01:09:15;;;;;;;38.40;22.40;;;;;;;6.99;83.54;102987.97;5025196;28;20033;-59
2022/04/16 01:11:41;;;;;;;46.15;28.30;;;;;;;7.00;83.41;102985.09;5052381;22;20494;-59
2022/04/16 01:14:06;;;;;;;43.28;28.45;;;;;;;6.74;84.53;102989.56;5044978;28;20053;-59
2022/04/16 01:16:33;;;;;;;46.58;31.50;;;;;;;6.86;84.43;102995.69;5043349;28;20025;-59
2022/04/16 01:18:59;;;;;;;44.58;26.95;;;;;;;6.72;85.58;102999.78;5045761;28;20351;-59
2022/04/16 01:21:24;;;;;;;50.30;33.33;;;;;;;6.86;84.64;103002.00;5042003;28;20039;-59
2022/04/16 01:23:50;;;;;;;46.05;31.65;;;;;;;6.74;85.29;103004.09;5044437;28;20044;-59
2022/04/16 01:26:15;;;;;;;47.70;30.15;;;;;;;6.88;84.42;102990.94;5045401;28;20536;-59
2022/04/16 01:28:41;;;;;;;34.53;20.23;;;;;;;7.16;82.64;102998.06;5040920;28;20037;-60
2022/04/16 01:31:06;;;;;;;41.28;25.92;;;;;;;7.03;83.37;103000.31;5045439;28;20052;-59
2022/04/16 01:33:32;;;;;;;41.72;24.52;;;;;;;6.95;84.12;103002.97;5043348;28;20035;-59
2022/04/16 01:35:58;;;;;;;36.38;21.52;;;;;;;6.88;84.06;103004.59;5043445;28;21144;-60
2022/04/16 01:38:25;;;;;;;28.70;17.65;;;;;;;6.94;84.07;103006.69;5044208;28;20037;-59
2022/04/16 01:40:54;;;;;;;48.28;27.17;;;;;;;7.03;83.54;103011.25;5043334;28;20031;-60
2022/04/16 01:43:19;;;;;;;40.47;24.60;;;;;;;6.83;84.48;103012.38;5042281;28;20104;-60
2022/04/16 01:45:44;;;;;;;48.33;30.67;;;;;;;6.79;84.98;103016.41;5045391;28;20155;-59
2022/04/16 01:48:13;;;;;;;49.22;30.73;;;;;;;6.72;85.20;103022.50;5043796;28;20028;-59
2022/04/16 01:50:39;;;;;;;45.40;28.00;;;;;;;6.75;85.13;103022.19;5040895;28;20192;-59
2022/04/16 01:53:04;;;;;;;31.10;19.25;;;;;;;6.95;84.03;103017.50;5045135;28;20505;-59
2022/04/16 01:55:30;;;;;;;39.88;24.35;;;;;;;6.95;84.25;103012.03;5039779;28;20033;-60
2022/04/16 01:57:55;;;;;;;57.33;31.27;;;;;;;6.82;84.90;103005.19;5043893;28;20025;-59
2022/04/16 02:00:20;;;;;;;31.85;18.50;;;;;;;6.73;85.88;103018.75;5041906;28;20029;-59
2022/04/16 02:02:45;;;;;;;43.67;25.17;;;;;;;6.85;84.94;103007.63;5044224;28;20036;-59
2022/04/16 02:05:11;;;;;;;45.38;27.35;;;;;;;6.75;85.56;103022.19;5042543;28;20391;-60
2022/04/16 02:07:38;;;;;;;47.95;27.48;;;;;;;6.70;85.48;103019.06;5042571;28;20029;-59
2022/04/16 02:10:04;;;;;;;44.38;27.27;;;;;;;6.54;86.48;103017.97;5043222;28;20108;-59
2022/04/16 02:12:29;;;;;;;48.58;27.83;;;;;;;6.62;86.23;103016.22;5043304;28;20136;-59
2022/04/16 02:14:55;;;;;;;36.85;20.50;;;;;;;6.62;86.50;103008.03;5044386;28;20043;-59
2022/04/16 02:17:20;;;;;;;43.55;25.00;;;;;;;6.63;86.39;103006.16;5043695;28;20349;-59
2022/04/16 02:19:48;;;;;;;43.05;25.50;;;;;;;6.68;85.64;103010.16;5041306;28;20025;-59
2022/04/16 02:22:14;;;;;;;;;;;;;;;7.09;85.05;103010.63;5041991;28;20394;-60
2022/04/16 02:24:39;;;;;;;44.08;23.52;;;;;;;6.63;86.05;103007.03;5043299;28;19992;-58
2022/04/16 02:27:05;;;;;;;42.63;26.20;;;;;;;6.68;86.00;103009.28;5024063;28;20515;-59
2022/04/16 02:29:31;;;;;;;49.42;29.67;;;;;;;6.42;87.37;103014.59;5043720;28;20036;-59
2022/04/16 02:31:56;;;;;;;45.97;25.52;;;;;;;6.66;86.21;103005.88;5043942;28;20021;-59
2022/04/16 02:34:22;;;;;;;54.13;32.22;;;;;;;6.44;87.68;103015.31;5044143;28;20525;-59
2022/04/16 02:36:47;;;;;;;50.03;29.50;;;;;;;6.52;86.82;103020.88;5040730;28;20061;-60
2022/04/16 02:39:14;;;;;;;57.30;34.80;;;;;;;6.33;88.25;103010.03;5041748;28;20067;-59
2022/04/16 02:41:40;;;;;;;46.58;25.58;;;;;;;6.29;88.31;103016.81;5026044;28;20582;-60
2022/04/16 02:44:05;;;;;;;57.13;32.08;;;;;;;6.24;88.73;103023.59;5044291;28;20099;-59
2022/04/16 02:49:15;;;;;;;56.65;34.97;;;;;;;6.17;88.42;103019.72;5042799;28;20075;-59
2022/04/16 02:51:41;;;;;;;53.90;30.40;;;;;;;6.29;88.02;103027.75;5042436;28;20075;-60
2022/04/16 02:54:06;;;;;;;45.00;24.55;;;;;;;6.33;87.96;103023.69;5063833;28;20028;-59
2022/04/16 02:56:32;;;;;;;47.58;25.30;;;;;;;6.29;87.82;103030.47;5030740;28;20037;-59
2022/04/16 02:58:57;;;;;;;53.03;32.10;;;;;;;6.28;88.00;103035.03;5042773;28;20028;-59
2022/04/16 03:01:22;;;;;;;43.10;24.95;;;;;;;6.34;87.75;103025.44;5040710;28;20075;-59
2022/04/16 03:03:48;;;;;;;46.20;25.42;;;;;;;6.31;88.14;103029.28;5043230;28;20028;-59
2022/04/16 03:06:13;;;;;;;43.88;22.02;;;;;;;6.35;87.63;103028.00;5040121;28;20024;-59
2022/04/16 03:08:38;;;;;;;43.30;25.67;;;;;;;6.30;87.68;103033.03;5043895;28;20095;-59
2022/04/16 03:11:04;;;;;;;52.95;29.50;;;;;;;6.18;88.38;103034.22;5043356;28;20376;-59
2022/04/16 03:13:30;;;;;;;41.75;22.92;;;;;;;6.05;89.21;103044.59;5042863;28;20033;-59
2022/04/16 03:18:38;;;;;;;58.25;32.75;;;;;;;6.07;89.19;103046.16;5042837;28;20122;-59
2022/04/16 03:21:05;;;;;;;57.50;35.53;;;;;;;6.06;88.91;103041.72;5041657;28;20060;-60
2022/04/16 03:23:30;;;;;;;45.40;26.95;;;;;;;6.04;89.42;103032.84;5043189;28;20349;-59
2022/04/16 03:26:00;;;;;;;43.22;25.25;;;;;;;6.07;89.20;103045.31;5024774;28;20032;-59
2022/04/16 03:28:26;;;;;;;58.80;32.95;;;;;;;5.78;90.88;103040.75;5042569;28;20032;-59
2022/04/16 03:30:51;;;;;;;58.08;34.05;;;;;;;6.00;89.76;103042.31;5042300;28;20443;-59
2022/04/16 03:33:16;;;;;;;56.58;35.55;;;;;;;5.96;89.75;103039.00;5024733;28;20406;-59
2022/04/16 03:35:41;;;;;;;49.17;29.85;;;;;;;6.05;89.23;103040.00;5040272;28;20037;-59
2022/04/16 03:38:07;;;;;;;49.78;25.63;;;;;;;6.15;89.58;103053.63;5043646;28;20494;-60
2022/04/16 03:40:32;;;;;;;56.17;31.73;;;;;;;5.95;90.13;103053.66;5042328;28;20037;-60
2022/04/16 03:42:58;;;;;;;50.28;26.85;;;;;;;5.75;91.38;103048.34;5042466;28;20032;-59
2022/04/16 03:45:29;;;;;;;57.35;34.88;;;;;;;5.76;91.57;103044.59;5022323;28;20472;-59
2022/04/16 03:47:56;;;;;;;60.97;35.88;;;;;;;5.58;92.42;103045.34;5042447;28;20488;-59
2022/04/16 03:50:24;;;;;;;45.65;24.40;;;;;;;5.89;91.11;103043.31;5047002;28;20029;-59
2022/04/16 03:52:51;;;;;;;51.38;30.23;;;;;;;5.76;91.39;103045.47;5049045;28;20387;-59
2022/04/16 04:00:53;;;;;;;59.30;33.72;;;;;;;5.55;92.59;103052.94;5040726;28;20044;-60
2022/04/16 04:03:18;;;;;;;51.65;31.48;;;;;;;5.47;93.21;103050.91;5042693;28;20025;-59
2022/04/16 04:05:45;;;;;;;56.28;32.40;;;;;;;5.57;92.38;103051.78;5040375;28;20041;-59
2022/04/16 04:08:11;;;;;;;57.28;35.50;;;;;;;5.50;92.24;103050.66;5042964;28;20051;-59
2022/04/16 04:10:37;;;;;;;59.30;36.10;;;;;;;5.33;93.68;103048.66;5042157;28;20032;-59
2022/04/16 04:13:03;;;;;;;55.47;29.23;;;;;;;5.60;91.94;103046.06;5043911;28;20041;-59
2022/04/16 04:15:31;;;;;;;61.92;35.70;;;;;;;5.31;93.38;103056.09;5046574;28;20529;-59
2022/04/16 04:17:58;;;;;;;66.40;37.60;;;;;;;5.28;93.88;103059.97;5047015;28;20033;-59
2022/04/16 04:20:24;;;;;;;60.90;34.53;;;;;;;5.40;93.55;103064.28;5045200;28;20029;-59
2022/04/16 04:22:49;;;;;;;62.63;36.25;;;;;;;5.21;94.31;103062.38;5046251;28;20310;-59
2022/04/16 04:25:15;;;;;;;63.53;36.65;;;;;;;5.17;94.48;103065.53;5046431;28;20096;-59
2022/04/16 04:27:40;;;;;;;58.40;30.70;;;;;;;5.42;93.62;103065.00;5046939;28;20052;-59
2022/04/16 04:30:06;;;;;;;61.00;35.88;;;;;;;5.23;94.70;103069.56;5053136;28;20044;-60
2022/04/16 04:32:31;;;;;;;62.38;35.38;;;;;;;5.32;94.19;103076.88;5049681;28;20150;-60
2022/04/16 04:34:57;;;;;;;60.88;36.85;;;;;;;5.46;93.16;103076.47;5045865;28;20390;-59
2022/04/16 04:37:22;;;;;;;63.38;38.15;;;;;;;5.19;94.27;103075.28;5044085;28;20060;-59
2022/04/16 04:39:48;;;;;;;65.38;39.80;;;;;;;5.19;94.32;103078.00;5045493;28;20068;-59
2022/04/16 04:42:22;;;;;;;62.22;38.38;;;;;;;5.18;94.71;103078.16;5042753;28;20032;-60
2022/04/16 04:44:47;;;;;;;65.78;40.30;;;;;;;5.25;93.93;103084.75;5046338;28;20693;-59
2022/04/16 04:47:12;;;;;;;65.05;38.22;;;;;;;5.18;94.27;103089.91;5045434;28;20128;-59
2022/04/16 04:49:37;;;;;;;65.82;36.03;;;;;;;5.16;95.03;103078.28;5045992;28;21040;-59
2022/04/16 04:52:03;;;;;;;68.30;37.72;;;;;;;5.11;95.09;103083.28;5042267;28;20057;-59
2022/04/16 04:54:28;;;;;;;65.45;39.00;;;;;;;5.19;94.62;103090.78;5027385;28;20029;-60
2022/04/16 04:56:53;;;;;;;68.65;40.20;;;;;;;5.03;95.57;103091.31;5027337;28;20734;-60
2022/04/16 04:59:19;;;;;;;65.10;39.60;;;;;;;5.00;95.81;103102.47;5045586;28;20033;-59
2022/04/16 05:01:44;;;;;;;68.78;38.97;;;;;;;5.04;96.08;103101.19;5025925;28;20044;-59
2022/04/16 05:04:09;;;;;;;67.28;40.00;;;;;;;5.06;95.82;103106.50;5045639;28;20034;-59
2022/04/16 05:06:34;;;;;;;67.28;38.95;;;;;;;5.08;96.11;103107.25;5044640;28;20475;-60
2022/04/16 05:09:00;;;;;;;66.88;39.30;;;;;;;5.12;95.31;103106.81;5045439;28;20071;-60
2022/04/16 05:11:25;;;;;;;62.38;37.00;;;;;;;5.16;95.23;103113.69;5043699;28;20068;-59
2022/04/16 05:13:50;;;;;;;67.28;38.67;;;;;;;5.18;95.28;103113.56;5045479;28;20040;-59
2022/04/16 05:16:16;;;;;;;60.92;34.33;;;;;;;5.29;95.07;103118.91;5044455;28;20463;-60
2022/04/16 05:18:41;;;;;;;64.40;38.33;;;;;;;5.21;95.34;103116.84;5042627;28;20033;-61
2022/04/16 05:21:06;;;;;;;67.38;38.60;;;;;;;5.37;94.29;103110.00;5042268;28;20375;-59
2022/04/16 05:23:32;;;;;;;70.82;40.65;;;;;;;5.28;95.16;103113.59;5026277;28;20082;-59
2022/04/16 05:25:57;;;;;;;60.55;36.78;;;;;;;5.37;94.51;103113.63;5044811;28;20013;-59
2022/04/16 05:28:22;;;;;;;66.95;39.90;;;;;;;5.44;94.55;103111.19;5044795;28;20430;-59
2022/04/16 05:30:54;;;;;;;69.38;39.63;;;;;;;5.53;94.65;103112.22;5043822;28;20032;-59
2022/04/16 05:36:05;;;;;;;69.78;41.25;;;;;;;5.56;95.28;103125.53;5043005;28;20087;-59
2022/04/16 05:38:30;;;;;;;66.47;40.15;;;;;;;5.73;94.45;103122.97;5043357;28;20086;-59
2022/04/16 05:40:56;;;;;;;70.00;40.83;;;;;;;5.74;95.02;103121.09;5044574;28;20032;-59
2022/04/16 05:43:21;;;;;;;74.47;42.53;;;;;;;5.75;95.67;103120.09;5043329;28;20051;-60
2022/04/16 05:45:46;;;;;;;69.35;41.25;;;;;;;5.83;95.90;103122.09;5026365;28;20526;-60
2022/04/16 05:48:12;;;;;;;71.18;41.83;;;;;;;5.89;96.06;103124.28;5042705;28;20021;-59
2022/04/16 05:50:37;;;;;;;68.85;42.28;;;;;;;6.05;95.01;103121.84;5044199;28;20082;-60
2022/04/16 05:53:05;;;;;;;73.30;43.05;;;;;;;6.10;95.18;103125.00;5044775;28;20037;-60
2022/04/16 05:55:31;;;;;;;68.75;40.90;;;;;;;6.20;95.32;103128.56;5044602;28;20397;-59
2022/04/16 05:57:57;;;;;;;74.43;43.25;;;;;;;6.22;95.44;103134.72;5042968;28;20017;-59
2022/04/16 06:00:22;;;;;;;71.22;42.17;;;;;;;6.39;94.86;103135.00;5038401;28;20516;-59
2022/04/16 06:02:48;;;;;;;69.80;42.67;;;;;;;6.52;94.72;103137.41;5044228;28;20094;-60
2022/04/16 06:05:13;;;;;;;70.05;40.03;;;;;;;6.69;94.03;103142.09;5042462;28;20107;-60
2022/04/16 06:07:39;;;;;;;68.03;40.33;;;;;;;6.80;93.93;103143.81;5042671;28;20017;-59
2022/04/16 06:10:04;;;;;;;64.97;41.20;;;;;;;6.91;92.67;103139.00;5042873;28;20430;-59
2022/04/16 06:12:30;;;;;;;49.22;32.78;;;;;;;7.31;90.78;103150.59;5041807;28;20052;-59
2022/04/16 06:14:55;;;;;;;66.30;39.75;;;;;;;7.05;92.46;103155.91;5044146;28;20056;-59
2022/04/16 06:17:20;;;;;;;65.65;40.00;;;;;;;7.03;93.17;103156.03;5042119;28;20122;-59
2022/04/16 06:19:45;;;;;;;63.95;40.28;;;;;;;7.08;92.97;103159.19;5043638;28;20037;-60
2022/04/16 06:22:11;;;;;;;66.43;40.53;;;;;;;7.18;92.80;103159.13;5036554;28;20094;-60
2022/04/16 06:24:41;;;;;;;69.50;42.42;;;;;;;7.25;92.86;103166.59;5040265;28;20072;-60
2022/04/16 06:27:06;;;;;;;68.80;39.53;;;;;;;7.31;92.78;103162.41;5042328;28;20040;-59
2022/04/16 06:29:31;;;;;;;65.90;39.95;;;;;;;7.37;92.70;103161.78;5039473;28;20029;-59
2022/04/16 06:31:56;;;;;;;68.57;40.00;;;;;;;7.54;91.49;103171.00;5036338;28;20037;-59
2022/04/16 06:34:23;;;;;;;64.28;41.65;;;;;;;7.55;91.71;103167.25;5031934;28;20107;-59
2022/04/16 06:36:49;;;;;;;62.97;39.38;;;;;;;7.89;90.48;103155.66;5039206;28;20033;-59
2022/04/16 06:39:14;;;;;;;59.88;37.55;;;;;;;7.89;89.91;103155.66;5057638;28;20025;-60
2022/04/16 06:41:39;;;;;;;57.45;36.22;;;;;;;8.01;89.72;103162.63;5026087;28;20182;-60
2022/04/16 06:44:05;;;;;;;68.32;40.97;;;;;;;8.31;89.31;103164.06;5044521;28;20067;-59
2022/04/16 06:46:30;;;;;;;60.78;35.40;;;;;;;8.60;87.31;103171.16;5041639;28;20040;-60
2022/04/16 06:48:55;;;;;;;59.85;36.95;;;;;;;8.82;86.15;103168.75;5042482;28;20043;-60
2022/04/16 06:51:20;;;;;;;60.05;37.03;;;;;;;8.86;86.12;103162.91;5038756;28;20044;-60
2022/04/16 06:53:46;;;;;;;59.50;35.38;;;;;;;8.92;86.22;103160.41;5042767;28;20048;-59
2022/04/16 06:56:11;;;;;;;57.45;37.70;;;;;;;8.99;85.96;103168.81;5041791;28;20021;-59
2022/04/16 06:58:36;;;;;;;59.33;37.75;;;;;;;9.17;84.45;103161.34;5041587;28;20502;-60
2022/04/16 07:01:01;;;;;;;53.97;35.20;;;;;;;9.36;84.81;103162.97;5043213;28;20037;-60
2022/04/16 07:03:27;;;;;;;56.03;37.03;;;;;;;9.70;83.55;103170.28;5042719;28;20036;-59
2022/04/16 07:05:52;;;;;;;54.47;35.42;;;;;;;10.07;81.35;103169.81;5038208;28;21524;-60
2022/04/16 07:08:17;;;;;;;52.55;33.90;;;;;;;10.82;79.67;103175.13;5041185;28;20021;-59
2022/04/16 07:10:43;;;;;;;52.22;33.90;;;;;;;11.67;74.92;103170.66;5042307;28;20037;-60
2022/04/16 07:13:08;;;;;;;49.97;33.88;;;;;;;11.68;74.49;103177.84;5041979;28;20045;-59
2022/04/16 07:15:33;;;;;;;47.88;32.08;;;;;;;12.16;72.10;103172.22;5042458;28;20017;-60
2022/04/16 07:17:59;;;;;;;46.15;31.15;;;;;;;12.58;69.57;103176.34;5043488;28;20025;-60
2022/04/16 07:20:25;;;;;;;43.25;30.35;;;;;;;12.92;68.94;103176.66;5037569;28;20438;-59
2022/04/16 07:22:50;;;;;;;47.30;30.05;;;;;;;13.27;67.80;103165.06;5042036;28;20033;-61
2022/04/16 07:25:15;;;;;;;44.15;31.35;;;;;;;13.63;66.89;103168.72;5040942;28;20062;-62
2022/04/16 07:27:43;;;;;;;42.38;29.63;;;;;;;14.26;64.38;103163.44;5038214;28;20091;-65
2022/04/16 07:30:09;;;;;;;42.15;29.65;;;;;;;13.87;64.02;103169.41;5041519;28;20033;-62
2022/04/16 07:32:34;;;;;;;44.05;30.23;;;;;;;13.70;65.26;103171.56;5024617;28;20151;-62
2022/04/16 07:34:59;;;;;;;42.22;29.98;;;;;;;13.57;64.23;103171.41;5042261;28;20140;-61
2022/04/16 07:37:25;;;;;;;42.10;30.08;;;;;;;13.38;65.40;103173.75;5040183;28;20031;-62
2022/04/16 07:39:50;;;;;;;41.15;29.20;;;;;;;13.70;65.42;103172.44;5043357;28;20518;-62
2022/04/16 07:42:16;;;;;;;43.53;29.52;;;;;;;13.80;65.05;103177.63;5042136;28;20091;-62
2022/04/16 07:44:41;;;;;;;41.05;27.88;;;;;;;13.62;65.26;103177.19;5042650;28;20021;-62
2022/04/16 07:47:06;;;;;;;34.97;22.10;;;;;;;13.21;65.73;103175.84;5042899;28;20480;-62
2022/04/16 07:49:31;;;;;;;43.67;29.20;;;;;;;13.05;67.01;103181.53;5039223;28;20033;-62
2022/04/16 07:51:57;;;;;;;40.17;28.73;;;;;;;13.01;66.88;103180.19;5040064;28;20454;-62
2022/04/16 07:54:22;;;;;;;43.25;30.05;;;;;;;12.81;67.71;103179.88;5039603;28;20036;-62
2022/04/16 07:56:47;;;;;;;41.72;28.80;;;;;;;12.75;67.18;103180.63;5039078;28;20082;-62
2022/04/16 07:59:13;;;;;;;42.45;29.02;;;;;;;12.71;68.05;103182.91;5042285;28;20353;-62
2022/04/16 08:01:38;;;;;;;39.90;27.95;;;;;;;12.64;67.78;103181.09;5040625;28;20459;-62
2022/04/16 08:04:04;;;;;;;42.60;29.40;;;;;;;12.55;67.32;103174.81;5039407;28;20025;-66
2022/04/16 08:06:29;;;;;;;43.60;30.13;;;;;;;12.23;69.35;103186.13;5037922;28;20630;-67
2022/04/16 08:09:00;;;;;;;30.85;19.35;;;;;;;12.43;67.51;103181.81;5040771;28;20251;-67
2022/04/16 08:11:30;;;;;;;41.20;27.25;;;;;;;12.09;70.73;103182.28;5042127;28;20063;-66
2022/04/16 08:13:55;;;;;;;42.58;28.17;;;;;;;12.00;69.42;103186.97;5041688;28;20079;-66
2022/04/16 08:16:20;;;;;;;39.90;28.35;;;;;;;12.02;70.43;103186.81;5041578;28;20037;-66
2022/04/16 08:18:46;;;;;;;43.78;28.40;;;;;;;12.14;69.47;103188.94;5039101;28;20106;-66
2022/04/16 08:21:11;;;;;;;37.13;23.23;;;;;;;12.32;67.37;103188.63;5036558;28;20027;-67
2022/04/16 08:23:43;;;;;;;40.63;27.98;;;;;;;12.02;69.46;103181.31;5043033;28;20541;-67
2022/04/16 08:26:09;;;;;;;40.85;28.67;;;;;;;12.09;69.65;103183.13;5039931;28;20021;-66
2022/04/16 08:28:34;;;;;;;41.17;28.15;;;;;;;12.17;69.42;103183.06;5058124;28;20507;-67
2022/04/16 08:30:59;;;;;;;44.22;28.50;;;;;;;12.41;70.00;103184.75;5048467;28;20108;-67
2022/04/16 08:33:25;;;;;;;43.67;28.83;;;;;;;12.96;67.62;103183.50;5039610;28;20067;-67
2022/04/16 08:35:50;;;;;;;40.85;29.40;;;;;;;13.31;65.12;103175.53;5036267;28;20028;-66
2022/04/16 08:38:16;;;;;;;38.15;26.27;;;;;;;13.47;64.76;103180.00;5038107;28;20379;-66
2022/04/16 08:40:41;;;;;;;41.17;27.90;;;;;;;13.41;64.39;103189.03;5042035;28;20498;-66
2022/04/16 08:43:07;;;;;;;39.80;27.95;;;;;;;13.66;64.76;103189.56;5042466;28;20378;-66
2022/04/16 08:45:35;;;;;;;40.00;26.83;;;;;;;14.24;64.24;103195.94;5039764;28;20391;-65
2022/04/16 08:48:01;;;;;;;;;;;;;;;14.47;63.38;103182.78;5040071;28;20025;-65
2022/04/16 08:50:27;;;;;;;36.42;25.90;;;;;;;14.37;61.34;103182.25;5038344;28;19966;-66
2022/04/16 08:52:53;;;;;;;39.08;26.67;;;;;;;14.88;61.93;103192.25;5040864;28;20074;-65
2022/04/16 08:55:18;;;;;;;38.92;25.92;;;;;;;15.50;59.51;103188.53;5040067;28;20536;-66
2022/04/16 08:57:43;;;;;;;34.55;23.55;;;;;;;16.17;57.93;103184.06;5039775;28;20033;-66
2022/04/16 09:00:13;;;;;;;31.10;18.75;;;;;;;17.16;54.61;103184.06;5042615;28;20460;-66
2022/04/16 09:02:49;;;;;;;32.60;23.58;;;;;;;18.07;52.55;103183.88;5044715;28;20044;-66
2022/04/16 09:05:18;;;;;;;31.48;22.92;;;;;;;19.38;47.45;103188.47;5042564;28;20032;-66
2022/04/16 09:07:49;;;;;;;29.20;20.67;;;;;;;20.33;46.11;103196.19;5044030;28;20039;-66
2022/04/16 09:10:14;;;;;;;29.45;20.73;;;;;;;20.64;42.79;103181.06;5042097;28;20105;-66
2022/04/16 09:12:40;;;;;;;27.45;19.25;;;;;;;21.13;41.02;103189.19;5042755;28;20395;-65
2022/04/16 09:15:10;;;;;;;27.90;20.27;;;;;;;21.78;40.86;103191.72;5045059;28;20174;-66
2022/04/16 09:17:36;;;;;;;27.05;20.60;;;;;;;22.01;39.72;103190.78;5044295;28;20026;-65
2022/04/16 09:20:12;;;;;;;27.05;20.23;;;;;;;22.40;39.67;103194.59;5042974;28;20029;-63
2022/04/16 09:22:39;;;;;;;24.67;18.02;;;;;;;23.29;37.30;103186.19;5044184;28;20054;-61
2022/04/16 09:25:14;;;;;;;28.58;20.60;;;;;;;23.68;39.22;103185.31;5026167;28;20025;-61
2022/04/16 09:27:46;;;;;;;21.33;12.13;;;;;;;23.34;37.21;103188.22;5043798;28;20028;-63
2022/04/16 09:30:12;;;;;;;26.38;20.50;;;;;;;22.03;37.93;103182.97;5043293;28;20029;-63
2022/04/16 09:32:43;;;;;;;26.15;19.23;;;;;;;21.06;40.47;103183.72;5026460;28;20395;-62
2022/04/16 09:35:09;;;;;;;26.30;19.60;;;;;;;21.79;39.74;103181.38;5043342;28;20028;-63
2022/04/16 09:37:34;;;;;;;24.45;19.15;;;;;;;21.90;38.87;103174.91;5043095;28;20230;-62
2022/04/16 09:40:10;;;;;;;26.15;18.52;;;;;;;22.76;37.71;103170.00;5043627;28;20035;-63
2022/04/16 09:42:36;;;;;;;24.75;18.23;;;;;;;22.62;38.33;103175.09;5025579;28;20041;-62
2022/04/16 09:45:13;;;;;;;23.50;18.27;;;;;;;23.15;37.74;103175.63;5043153;28;20040;-62
2022/04/16 09:47:38;;;;;;;24.03;17.37;;;;;;;23.62;34.78;103180.69;5043847;28;20514;-62
2022/04/16 09:50:04;;;;;;;19.50;14.63;;;;;;;24.28;33.48;103168.25;5042451;28;20119;-62
2022/04/16 09:52:30;;;;;;;21.15;14.35;;;;;;;24.70;31.48;103164.69;5024513;28;20029;-62
2022/04/16 09:54:58;;;;;;;20.33;14.00;;;;;;;23.41;34.20;103172.03;5043184;28;20025;-63
2022/04/16 09:57:29;;;;;;;21.75;16.52;;;;;;;22.84;34.61;103168.69;5042701;28;20466;-64
2022/04/16 09:59:55;;;;;;;19.58;14.98;;;;;;;22.15;35.01;103166.16;5042418;28;20115;-63
2022/04/16 10:02:21;;;;;;;21.77;15.30;;;;;;;23.18;35.45;103167.53;5042855;28;20040;-63
2022/04/16 10:04:46;;;;;;;20.55;13.82;;;;;;;22.99;33.91;103157.75;5042407;28;20029;-63
2022/04/16 10:07:13;;;;;;;16.90;11.13;;;;;;;21.59;34.75;103165.88;5041860;28;20049;-64
2022/04/16 10:09:41;;;;;;;20.63;13.40;;;;;;;21.77;35.73;103162.06;5043034;28;20467;-63
2022/04/16 10:15:11;;;;;;;14.18;9.50;;;;;;;20.39;37.33;103160.88;5042940;28;20135;-63
2022/04/16 10:17:44;;;;;;;17.70;12.85;;;;;;;20.47;38.63;103157.75;5043010;28;20379;-63
2022/04/16 10:20:17;;;;;;;11.77;7.22;;;;;;;21.53;34.93;103147.31;5041159;28;20032;-64
2022/04/16 10:23:12;;;;;;;15.45;10.05;;;;;;;22.28;36.11;103152.69;5024673;28;20025;-64
2022/04/16 10:25:41;;;;;;;15.88;10.65;;;;;;;22.46;33.07;103156.34;5025324;28;20453;-63
2022/04/16 10:28:16;;;;;;;14.38;9.60;;;;;;;22.79;34.17;103156.28;5042934;28;20033;-64
2022/04/16 10:30:49;;;;;;;10.55;6.75;;;;;;;23.60;31.38;103158.53;5042079;28;20238;-63
2022/04/16 10:33:22;;;;;;;11.13;7.05;;;;;;;23.87;30.95;103155.75;5042852;28;20313;-64
2022/04/16 10:36:09;;;;;;;12.45;7.47;;;;;;;24.06;30.36;103162.69;5041469;28;20021;-63
2022/04/16 10:38:37;;;;;;;13.90;9.63;;;;;;;22.29;32.16;103161.91;5043499;28;20438;-64
2022/04/16 10:41:13;;;;;;;13.20;8.52;;;;;;;22.60;31.62;103149.28;5042474;28;20033;-63
2022/04/16 10:43:39;;;;;;;12.75;6.95;;;;;;;22.17;32.27;103158.34;5042835;28;20138;-64
2022/04/16 10:46:07;;;;;;;13.23;9.10;;;;;;;21.74;32.93;103162.53;5042626;28;20098;-63
2022/04/16 10:48:37;;;;;;;12.27;7.03;;;;;;;21.71;32.52;103149.94;5040849;28;20450;-64
2022/04/16 10:51:05;;;;;;;12.15;7.07;;;;;;;21.27;33.32;103159.88;5041794;28;20306;-64
2022/04/16 10:53:32;;;;;;;;;;;;;;;21.46;33.11;103150.25;5041938;28;20298;-64
2022/04/16 10:56:16;;;;;;;9.73;6.17;;;;;;;21.08;32.51;103135.97;5041610;28;19943;-64
2022/04/16 10:58:46;;;;;;;11.07;7.00;;;;;;;20.96;33.59;103155.56;5042067;28;20028;-64
2022/04/16 11:01:14;;;;;;;11.52;7.80;;;;;;;21.89;31.36;103154.44;5041484;28;20031;-64
2022/04/16 11:03:47;;;;;;;11.48;7.57;;;;;;;22.89;31.25;103144.44;5041851;28;20094;-64
2022/04/16 11:06:13;;;;;;;12.45;8.57;;;;;;;23.92;28.78;103143.75;5040891;28;20430;-64
2022/04/16 11:08:40;;;;;;;10.98;6.63;;;;;;;22.17;30.83;103150.81;5042037;28;20107;-64
2022/04/16 11:11:06;;;;;;;13.07;7.32;;;;;;;21.26;33.55;103149.81;5041976;28;20017;-64
2022/04/16 11:13:33;;;;;;;10.98;7.35;;;;;;;20.80;34.82;103153.50;5041047;28;20369;-64
2022/04/16 11:15:59;;;;;;;8.37;5.77;;;;;;;21.40;32.97;103156.00;5041846;28;20580;-64
2022/04/16 11:18:47;;;;;;;13.10;7.15;;;;;;;20.80;34.80;103150.72;5040724;28;20075;-64
2022/04/16 11:21:25;;;;;;;13.00;7.22;;;;;;;19.55;37.28;103149.66;5041486;28;20031;-63
2022/04/16 11:23:52;;;;;;;12.70;8.55;;;;;;;18.74;39.88;103149.97;5040866;28;20451;-64
2022/04/16 11:34:40;;;;;;;12.43;7.70;;;;;;;17.45;40.37;103148.50;5041099;28;20102;-64
2022/04/16 11:37:07;;;;;;;15.52;9.27;;;;;;;17.49;40.88;103147.84;5041095;28;20620;-64
2022/04/16 11:39:34;;;;;;;14.88;10.65;;;;;;;17.47;42.33;103151.88;5041054;28;20021;-66